createdAt,value
2023-03-28T00:01:16.768Z,81.70
2023-03-28T00:03:44.619Z,81.40
2023-03-28T00:06:16.284Z,82.30
2023-03-28T00:08:45.923Z,82.70
2023-03-28T00:11:19.258Z,83.30
2023-03-28T00:13:47.956Z,82.80
2023-03-28T00:16:17.261Z,82.60
2023-03-28T00:18:45.121Z,82.50
2023-03-28T00:21:27.324Z,83.50
2023-03-28T00:23:57.137Z,83.80
2023-03-28T00:26:26.897Z,83.80
2023-03-28T00:28:55.643Z,84.00
2023-03-28T00:31:25.956Z,84.30
2023-03-28T00:33:54.582Z,84.40
2023-03-28T00:36:26.541Z,83.80
2023-03-28T00:38:54.860Z,83.50
2023-03-28T00:41:23.733Z,83.40
2023-03-28T00:43:53.228Z,82.50
2023-03-28T00:46:26.397Z,82.90
2023-03-28T00:48:58.341Z,83.20
2023-03-28T00:51:31.062Z,82.20
2023-03-28T00:54:00.894Z,81.70
2023-03-28T00:56:31.475Z,82.20
2023-03-28T00:59:01.799Z,81.50
2023-03-28T01:01:31.073Z,82.00
2023-03-28T01:04:02.969Z,81.70
2023-03-28T01:06:33.928Z,82.00
2023-03-28T01:09:04.587Z,82.50
2023-03-28T01:11:33.326Z,82.90
2023-03-28T01:14:04.379Z,83.30
2023-03-28T01:16:33.767Z,82.90
2023-03-28T01:19:02.939Z,83.50
2023-03-28T01:21:54.910Z,83.80
2023-03-28T01:24:45.762Z,84.10
2023-03-28T01:27:17.861Z,84.40
2023-03-28T01:30:21.038Z,84.80
2023-03-28T01:33:28.277Z,83.90
2023-03-28T01:36:33.596Z,84.00
2023-03-28T01:39:09.389Z,84.20
2023-03-28T01:41:43.370Z,84.40
2023-03-28T01:44:18.342Z,84.30
2023-03-28T01:46:52.403Z,83.30
2023-03-28T01:49:31.472Z,84.60
2023-03-28T01:52:06.051Z,84.30
2023-03-28T01:54:43.886Z,84.70
2023-03-28T01:57:16.372Z,84.70
2023-03-28T01:59:48.249Z,85.10
2023-03-28T02:02:27.517Z,84.50
2023-03-28T02:04:57.363Z,84.90
2023-03-28T02:07:27.182Z,85.20
2023-03-28T02:09:58.105Z,85.10
2023-03-28T02:12:32.416Z,85.40
2023-03-28T02:15:04.871Z,85.40
2023-03-28T02:17:38.262Z,86.00
2023-03-28T02:20:11.712Z,85.00
2023-03-28T02:22:46.680Z,85.60
2023-03-28T02:25:16.162Z,85.40
2023-03-28T02:27:47.156Z,86.30
2023-03-28T02:30:15.725Z,85.60
2023-03-28T02:32:44.133Z,85.80
2023-03-28T02:35:12.342Z,85.90
2023-03-28T02:37:49.455Z,86.20
2023-03-28T02:40:45.480Z,85.80
2023-03-28T02:43:28.950Z,86.80
2023-03-28T02:46:10.570Z,87.00
2023-03-28T02:48:57.067Z,86.60
2023-03-28T02:51:34.776Z,86.30
2023-03-28T02:54:17.633Z,87.00
2023-03-28T02:56:52.953Z,87.40
2023-03-28T02:59:27.582Z,87.00
2023-03-28T03:01:55.688Z,87.00
2023-03-28T03:04:23.705Z,87.00
2023-03-28T03:06:51.725Z,86.90
2023-03-28T03:09:19.625Z,86.80
2023-03-28T03:11:48.795Z,86.70
2023-03-28T03:14:16.679Z,86.50
2023-03-28T03:16:44.501Z,86.20
2023-03-28T03:19:12.492Z,85.80
2023-03-28T03:21:40.281Z,85.90
2023-03-28T03:24:09.744Z,85.90
2023-03-28T03:26:37.566Z,85.90
2023-03-28T03:29:06.752Z,85.80
2023-03-28T03:31:34.695Z,85.90
2023-03-28T03:34:02.629Z,85.00
2023-03-28T03:36:31.717Z,85.00
2023-03-28T03:38:59.710Z,85.10
2023-03-28T03:41:27.768Z,85.20
2023-03-28T03:43:55.613Z,85.20
2023-03-28T03:46:24.911Z,85.40
2023-03-28T03:48:52.752Z,85.40
2023-03-28T03:51:20.591Z,85.60
2023-03-28T03:53:50.630Z,85.70
2023-03-28T03:56:18.530Z,85.70
2023-03-28T03:58:46.449Z,85.60
2023-03-28T04:01:14.840Z,85.80
2023-03-28T04:03:44.109Z,85.80
2023-03-28T04:06:11.980Z,85.60
2023-03-28T04:08:39.799Z,85.70
2023-03-28T04:11:10.413Z,85.50
2023-03-28T04:13:38.383Z,86.00
2023-03-28T04:16:07.069Z,86.00
2023-03-28T04:18:35.627Z,86.10
2023-03-28T04:21:05.265Z,85.90
2023-03-28T04:23:35.294Z,85.50
2023-03-28T04:26:03.596Z,85.90
2023-03-28T04:28:31.418Z,85.70
2023-03-28T04:30:59.639Z,85.90
2023-03-28T04:33:29.163Z,86.00
2023-03-28T04:36:00.581Z,85.80
2023-03-28T04:38:31.741Z,85.80
2023-03-28T04:41:00.975Z,85.70
2023-03-28T04:43:29.048Z,85.80
2023-03-28T04:45:57.322Z,85.40
2023-03-28T04:48:26.279Z,85.10
2023-03-28T04:50:54.449Z,85.00
2023-03-28T04:53:22.753Z,85.20
2023-03-28T04:55:53.303Z,86.00
2023-03-28T04:58:23.964Z,85.80
2023-03-28T05:00:52.038Z,85.60
2023-03-28T05:03:21.668Z,86.10
2023-03-28T05:05:51.197Z,85.70
2023-03-28T05:08:20.774Z,86.20
2023-03-28T05:10:48.689Z,85.80
2023-03-28T05:13:18.559Z,86.40
2023-03-28T05:15:48.314Z,85.90
2023-03-28T05:18:16.358Z,85.60
2023-03-28T05:20:44.232Z,85.70
2023-03-28T05:23:12.052Z,84.80
2023-03-28T05:25:39.939Z,86.00
2023-03-28T05:28:07.782Z,85.50
2023-03-28T05:30:37.047Z,85.50
2023-03-28T05:33:05.068Z,85.90
2023-03-28T05:35:33.054Z,85.40
2023-03-28T05:38:02.398Z,85.10
2023-03-28T05:40:30.323Z,85.40
2023-03-28T05:42:58.162Z,85.50
2023-03-28T05:45:25.995Z,85.70
2023-03-28T05:47:56.803Z,85.50
2023-03-28T05:50:26.279Z,85.90
2023-03-28T05:52:54.156Z,86.00
2023-03-28T05:55:22.011Z,85.90
2023-03-28T05:57:49.857Z,85.50
2023-03-28T06:00:19.642Z,86.20
2023-03-28T06:02:50.372Z,85.10
2023-03-28T06:05:20.523Z,85.20
2023-03-28T06:07:48.647Z,85.20
2023-03-28T06:10:16.633Z,85.20
2023-03-28T06:12:44.744Z,85.30
2023-03-28T06:15:13.005Z,85.50
2023-03-28T06:17:41.009Z,85.40
2023-03-28T06:20:10.662Z,85.30
2023-03-28T06:22:40.043Z,85.40
2023-03-28T06:25:08.664Z,85.40
2023-03-28T06:27:36.601Z,84.90
2023-03-28T06:30:05.603Z,83.50
2023-03-28T06:32:33.541Z,84.50
2023-03-28T06:35:01.640Z,84.10
2023-03-28T06:37:29.487Z,82.70
2023-03-28T06:39:58.637Z,82.90
2023-03-28T06:42:27.111Z,83.60
2023-03-28T06:44:55.009Z,82.50
2023-03-28T06:47:22.889Z,81.90
2023-03-28T06:49:50.712Z,78.40
2023-03-28T06:52:18.652Z,75.30
2023-03-28T06:54:48.468Z,72.30
2023-03-28T06:57:17.927Z,65.80
2023-03-28T06:59:45.817Z,65.20
2023-03-28T07:02:13.856Z,63.80
2023-03-28T07:04:41.883Z,61.10
2023-03-28T07:07:10.106Z,63.30
2023-03-28T07:09:37.990Z,61.10
2023-03-28T07:12:06.356Z,57.40
2023-03-28T07:14:36.287Z,58.60
2023-03-28T07:17:04.197Z,56.30
2023-03-28T07:19:32.191Z,54.80
2023-03-28T07:22:00.036Z,52.80
2023-03-28T07:24:28.144Z,51.80
2023-03-28T07:27:07.971Z,51.30
2023-03-28T07:29:44.432Z,50.60
2023-03-28T07:32:12.591Z,51.20
2023-03-28T07:34:40.516Z,49.00
2023-03-28T07:37:09.251Z,49.20
2023-03-28T07:39:39.802Z,46.40
2023-03-28T07:42:11.287Z,46.00
2023-03-28T07:44:41.025Z,45.80
2023-03-28T07:47:12.034Z,45.80
2023-03-28T07:49:40.943Z,43.10
2023-03-28T07:52:09.018Z,45.40
2023-03-28T07:54:37.323Z,42.60
2023-03-28T07:57:05.704Z,42.80
2023-03-28T07:59:33.702Z,41.70
2023-03-28T08:02:01.604Z,43.00
2023-03-28T08:04:31.173Z,45.20
2023-03-28T08:07:00.213Z,46.00
2023-03-28T08:09:28.367Z,47.40
2023-03-28T08:11:56.245Z,48.20
2023-03-28T08:14:24.098Z,49.80
2023-03-28T08:16:52.103Z,49.30
2023-03-28T08:19:20.110Z,47.20
2023-03-28T08:21:49.270Z,47.30
2023-03-28T08:24:25.425Z,45.40
2023-03-28T08:26:57.002Z,44.10
2023-03-28T08:29:25.102Z,44.90
2023-03-28T08:31:53.161Z,42.60
2023-03-28T08:34:21.141Z,43.80
2023-03-28T08:36:50.314Z,43.50
2023-03-28T08:39:19.072Z,43.40
2023-03-28T08:42:09.266Z,45.70
2023-03-28T08:44:52.380Z,44.30
2023-03-28T08:47:24.948Z,46.30
2023-03-28T08:49:58.899Z,43.80
2023-03-28T08:52:30.381Z,43.70
2023-03-28T08:55:04.324Z,41.40
2023-03-28T08:57:34.847Z,40.80
2023-03-28T09:00:12.730Z,38.90
2023-03-28T09:02:41.067Z,40.00
2023-03-28T09:05:23.119Z,38.90
2023-03-28T09:08:00.713Z,40.00
2023-03-28T09:10:34.237Z,39.30
2023-03-28T09:13:21.300Z,41.50
2023-03-28T09:16:06.952Z,39.90
2023-03-28T09:18:54.938Z,36.60
2023-03-28T09:21:31.046Z,36.60
2023-03-28T09:24:14.390Z,37.70
2023-03-28T09:26:48.146Z,40.00
2023-03-28T09:29:18.855Z,38.40
2023-03-28T09:31:49.192Z,37.70
2023-03-28T09:34:23.011Z,36.70
2023-03-28T09:36:55.559Z,37.90
2023-03-28T09:39:33.593Z,39.80
2023-03-28T09:42:06.154Z,38.40
2023-03-28T09:44:53.542Z,39.30
2023-03-28T09:47:22.884Z,36.60
2023-03-28T09:50:02.234Z,34.00
2023-03-28T09:52:33.927Z,32.30
2023-03-28T09:55:03.482Z,35.00
2023-03-28T09:58:01.247Z,31.70
2023-03-28T10:00:29.676Z,31.50
2023-03-28T10:02:57.633Z,29.00
2023-03-28T10:05:33.985Z,30.40
2023-03-28T10:08:05.845Z,31.80
2023-03-28T10:10:35.109Z,29.00
2023-03-28T10:13:04.997Z,27.70
2023-03-28T10:15:42.905Z,26.20
2023-03-28T10:18:17.675Z,28.50
2023-03-28T10:20:46.268Z,31.60
2023-03-28T10:23:14.968Z,31.80
2023-03-28T10:25:46.429Z,30.90
2023-03-28T10:28:22.016Z,29.40
2023-03-28T10:30:54.747Z,26.20
2023-03-28T10:33:26.838Z,29.80
2023-03-28T10:35:59.926Z,27.80
2023-03-28T10:38:31.647Z,27.90
2023-03-28T10:41:06.679Z,30.00
2023-03-28T10:43:37.543Z,29.70
2023-03-28T10:46:11.801Z,30.10
2023-03-28T10:48:41.747Z,28.30
2023-03-28T10:51:17.600Z,27.60
2023-03-28T10:54:11.271Z,27.90
2023-03-28T10:56:44.435Z,31.80
2023-03-28T10:59:24.813Z,31.30
2023-03-28T11:02:08.460Z,29.00
2023-03-28T11:04:55.211Z,28.30
2023-03-28T11:07:30.958Z,26.60
2023-03-28T11:10:07.795Z,29.80
2023-03-28T11:12:55.205Z,29.20
2023-03-28T11:15:30.780Z,28.30
2023-03-28T11:18:10.255Z,26.30
2023-03-28T11:20:48.014Z,27.80
2023-03-28T11:23:44.947Z,26.60
2023-03-28T11:26:15.990Z,26.70
2023-03-28T11:29:00.502Z,27.90
2023-03-28T11:31:34.034Z,30.20
2023-03-28T11:34:07.206Z,29.70
2023-03-28T11:36:39.919Z,31.40
2023-03-28T11:39:14.539Z,31.90
2023-03-28T11:41:44.120Z,25.80
2023-03-28T11:44:19.406Z,26.70
2023-03-28T11:46:53.744Z,26.80
2023-03-28T11:49:25.569Z,25.80
2023-03-28T11:52:02.168Z,27.00
2023-03-28T11:54:36.167Z,27.20
2023-03-28T11:57:11.805Z,25.10
2023-03-28T11:59:48.523Z,24.20
2023-03-28T12:02:36.989Z,24.50
2023-03-28T12:05:11.018Z,25.70
2023-03-28T12:07:44.259Z,25.10
2023-03-28T12:10:21.604Z,27.20
2023-03-28T12:12:58.513Z,26.00
2023-03-28T12:15:38.438Z,28.30
2023-03-28T12:18:11.243Z,24.50
2023-03-28T12:20:46.187Z,26.20
2023-03-28T12:23:22.310Z,25.10
2023-03-28T12:25:59.751Z,23.60
2023-03-28T12:28:34.601Z,25.70
2023-03-28T12:31:10.945Z,24.90
2023-03-28T12:33:49.620Z,26.00
2023-03-28T12:36:24.247Z,24.10
2023-03-28T12:38:57.773Z,24.40
2023-03-28T12:41:30.379Z,23.80
2023-03-28T12:44:00.523Z,23.30
2023-03-28T12:46:35.643Z,23.20
2023-03-28T12:49:07.065Z,25.70
2023-03-28T12:51:37.631Z,26.00
2023-03-28T12:54:11.258Z,21.70
2023-03-28T12:56:39.167Z,23.30
2023-03-28T12:59:47.130Z,22.20
2023-03-28T13:02:24.621Z,20.80
2023-03-28T13:04:59.886Z,23.60
2023-03-28T13:07:35.095Z,22.90
2023-03-28T13:10:08.085Z,22.90
2023-03-28T13:12:46.786Z,23.50
2023-03-28T13:15:32.537Z,23.70
2023-03-28T13:18:27.767Z,22.30
2023-03-28T13:20:56.616Z,21.40
2023-03-28T13:23:32.763Z,20.70
2023-03-28T13:26:02.427Z,22.70
2023-03-28T13:28:34.112Z,23.60
2023-03-28T13:31:07.986Z,22.80
2023-03-28T13:33:39.108Z,23.60
2023-03-28T13:36:19.850Z,22.30
2023-03-28T13:38:50.822Z,23.80
2023-03-28T13:41:37.203Z,20.90
2023-03-28T13:44:11.407Z,21.30
2023-03-28T13:46:43.666Z,22.10
2023-03-28T13:49:18.859Z,24.10
2023-03-28T13:51:53.202Z,23.60
2023-03-28T13:54:21.753Z,21.90
2023-03-28T13:56:51.993Z,22.50
2023-03-28T13:59:23.843Z,22.60
2023-03-28T14:01:55.441Z,21.90
2023-03-28T14:04:26.385Z,22.60
2023-03-28T14:06:55.590Z,22.30
2023-03-28T14:09:32.349Z,21.10
2023-03-28T14:12:03.721Z,22.00
2023-03-28T14:14:34.453Z,24.90
2023-03-28T14:17:03.863Z,22.70
2023-03-28T14:19:39.421Z,22.30
2023-03-28T14:22:08.543Z,22.50
2023-03-28T14:24:37.270Z,23.10
2023-03-28T14:27:11.913Z,22.60
2023-03-28T14:29:53.527Z,24.40
2023-03-28T14:32:26.750Z,24.30
2023-03-28T14:34:57.219Z,23.40
2023-03-28T14:37:25.678Z,24.10
2023-03-28T14:39:54.332Z,24.20
2023-03-28T14:42:24.272Z,24.10
2023-03-28T14:44:54.995Z,25.40
2023-03-28T14:47:28.372Z,24.30
2023-03-28T14:49:58.188Z,24.10
2023-03-28T14:52:29.967Z,25.50
2023-03-28T14:54:59.189Z,25.10
2023-03-28T14:57:27.657Z,25.80
2023-03-28T14:59:57.282Z,26.00
2023-03-28T15:02:29.049Z,24.00
2023-03-28T15:05:02.351Z,23.00
2023-03-28T15:07:33.532Z,24.00
2023-03-28T15:10:08.877Z,23.90
2023-03-28T15:12:46.758Z,22.90
2023-03-28T15:15:18.104Z,23.80
2023-03-28T15:17:46.966Z,23.80
2023-03-28T15:20:18.832Z,23.00
2023-03-28T15:22:50.887Z,23.80
2023-03-28T15:25:21.113Z,23.80
2023-03-28T15:27:52.316Z,24.30
2023-03-28T15:30:21.873Z,23.80
2023-03-28T15:32:50.851Z,23.90
2023-03-28T15:35:30.088Z,22.80
2023-03-28T15:38:09.076Z,22.80
2023-03-28T15:40:42.736Z,24.50
2023-03-28T15:43:30.747Z,23.80
2023-03-28T15:46:00.853Z,25.20
2023-03-28T15:48:34.620Z,23.50
2023-03-28T15:51:06.630Z,23.70
2023-03-28T15:53:36.191Z,22.80
2023-03-28T15:56:09.776Z,24.60
2023-03-28T15:58:42.766Z,24.10
2023-03-28T16:01:25.959Z,24.20
2023-03-28T16:04:21.606Z,24.00
2023-03-28T16:06:50.301Z,25.20
2023-03-28T16:09:20.568Z,25.00
2023-03-28T16:11:52.749Z,25.40
2023-03-28T16:14:21.867Z,24.00
2023-03-28T16:16:54.290Z,23.70
2023-03-28T16:19:25.491Z,25.50
2023-03-28T16:21:53.831Z,25.50
2023-03-28T16:24:22.156Z,25.10
2023-03-28T16:26:49.979Z,25.60
2023-03-28T16:29:17.824Z,25.40
2023-03-28T16:31:45.794Z,25.80
2023-03-28T16:34:13.802Z,26.10
2023-03-28T16:36:42.965Z,27.50
2023-03-28T16:39:12.002Z,27.60
2023-03-28T16:41:40.090Z,26.60
2023-03-28T16:44:08.006Z,25.70
2023-03-28T16:46:35.913Z,25.60
2023-03-28T16:49:03.777Z,27.20
2023-03-28T16:51:31.616Z,26.50
2023-03-28T16:54:00.834Z,27.90
2023-03-28T16:56:30.148Z,26.80
2023-03-28T16:58:58.076Z,27.50
2023-03-28T17:01:26.160Z,27.00
2023-03-28T17:03:55.585Z,27.40
2023-03-28T17:06:23.530Z,26.70
2023-03-28T17:08:53.187Z,26.80
2023-03-28T17:11:23.328Z,26.90
2023-03-28T17:13:53.833Z,26.80
2023-03-28T17:16:22.482Z,27.30
2023-03-28T17:18:50.714Z,27.00
2023-03-28T17:21:19.737Z,26.50
2023-03-28T17:23:48.835Z,27.10
2023-03-28T17:26:17.796Z,27.40
2023-03-28T17:28:47.081Z,27.60
2023-03-28T17:31:17.496Z,27.80
2023-03-28T17:33:46.127Z,28.10
2023-03-28T17:36:21.778Z,27.90
2023-03-28T17:38:50.939Z,28.10
2023-03-28T17:41:19.227Z,28.20
2023-03-28T17:43:48.433Z,29.40
2023-03-28T17:46:17.053Z,29.50
2023-03-28T17:48:45.584Z,31.50
2023-03-28T17:51:13.877Z,36.80
2023-03-28T17:53:42.893Z,35.70
2023-03-28T17:56:12.190Z,37.50
2023-03-28T17:58:40.093Z,35.90
2023-03-28T18:01:11.620Z,35.10
2023-03-28T18:03:40.119Z,36.80
2023-03-28T18:06:08.930Z,37.20
2023-03-28T18:08:37.174Z,38.90
2023-03-28T18:11:07.773Z,39.20
2023-03-28T18:13:36.853Z,38.60
2023-03-28T18:16:05.846Z,41.00
2023-03-28T18:18:35.075Z,41.10
2023-03-28T18:21:04.184Z,42.40
2023-03-28T18:23:32.400Z,42.50
2023-03-28T18:26:00.687Z,42.90
2023-03-28T18:28:28.773Z,42.50
2023-03-28T18:30:58.041Z,44.10
2023-03-28T18:33:25.922Z,47.60
2023-03-28T18:35:55.322Z,48.60
2023-03-28T18:38:23.150Z,47.20
2023-03-28T18:40:53.816Z,47.40
2023-03-28T18:43:22.245Z,47.30
2023-03-28T18:45:54.962Z,47.80
2023-03-28T18:48:23.508Z,46.90
2023-03-28T18:50:51.538Z,46.80
2023-03-28T18:53:20.727Z,47.80
2023-03-28T18:55:48.529Z,47.70
2023-03-28T18:58:16.344Z,48.50
2023-03-28T19:00:44.262Z,48.50
2023-03-28T19:03:17.441Z,47.90
2023-03-28T19:05:45.773Z,47.30
2023-03-28T19:08:13.616Z,47.30
2023-03-28T19:10:47.344Z,46.60
2023-03-28T19:13:15.183Z,47.20
2023-03-28T19:15:43.070Z,47.60
2023-03-28T19:18:11.131Z,49.60
2023-03-28T19:20:39.253Z,49.20
2023-03-28T19:23:07.711Z,50.60
2023-03-28T19:25:35.546Z,52.40
2023-03-28T19:28:04.758Z,52.40
2023-03-28T19:30:32.597Z,52.80
2023-03-28T19:33:00.458Z,53.40
2023-03-28T19:35:28.347Z,53.70
2023-03-28T19:37:56.196Z,53.60
2023-03-28T19:40:25.806Z,55.60
2023-03-28T19:42:53.655Z,56.00
2023-03-28T19:45:22.820Z,58.80
2023-03-28T19:47:51.709Z,56.00
2023-03-28T19:50:19.993Z,56.70
2023-03-28T19:52:47.836Z,57.40
2023-03-28T19:55:16.086Z,55.70
2023-03-28T19:57:43.915Z,54.40
2023-03-28T20:00:12.404Z,52.70
2023-03-28T20:02:41.820Z,55.20
2023-03-28T20:05:10.562Z,54.30
2023-03-28T20:07:38.395Z,53.50
2023-03-28T20:10:07.355Z,54.50
2023-03-28T20:12:39.665Z,59.10
2023-03-28T20:15:08.688Z,62.30
2023-03-28T20:17:37.018Z,65.70
2023-03-28T20:20:08.130Z,65.00
2023-03-28T20:22:36.189Z,66.40
2023-03-28T20:25:04.211Z,65.80
2023-03-28T20:27:32.830Z,66.10
2023-03-28T20:30:00.787Z,64.10
2023-03-28T20:32:28.708Z,63.90
2023-03-28T20:34:56.537Z,64.40
2023-03-28T20:37:25.810Z,66.80
2023-03-28T20:39:55.119Z,75.10
2023-03-28T20:42:24.251Z,75.10
2023-03-28T20:44:52.057Z,75.80
2023-03-28T20:47:24.144Z,76.20
2023-03-28T20:49:56.753Z,75.50
2023-03-28T20:52:26.082Z,75.30
2023-03-28T20:54:54.302Z,76.40
2023-03-28T20:57:25.420Z,78.80
2023-03-28T20:59:55.233Z,77.80
2023-03-28T21:02:25.382Z,75.70
2023-03-28T21:04:55.219Z,73.80
2023-03-28T21:07:23.265Z,72.60
2023-03-28T21:09:53.561Z,72.10
2023-03-28T21:12:21.350Z,69.90
2023-03-28T21:14:49.260Z,70.00
2023-03-28T21:17:21.868Z,75.80
2023-03-28T21:19:49.778Z,77.20
2023-03-28T21:22:17.618Z,80.20
2023-03-28T21:24:45.430Z,80.20
2023-03-28T21:27:14.610Z,81.40
2023-03-28T21:29:42.468Z,81.00
2023-03-28T21:32:10.695Z,80.70
2023-03-28T21:34:41.317Z,79.20
2023-03-28T21:37:09.495Z,77.70
2023-03-28T21:39:37.466Z,74.60
2023-03-28T21:42:05.769Z,74.50
2023-03-28T21:44:34.959Z,75.90
2023-03-28T21:47:02.777Z,76.00
2023-03-28T21:49:32.609Z,75.50
2023-03-28T21:52:00.455Z,76.40
2023-03-28T21:54:28.285Z,75.70
2023-03-28T21:56:56.255Z,76.20
2023-03-28T21:59:24.111Z,74.50
2023-03-28T22:01:53.290Z,71.60
2023-03-28T22:04:21.547Z,70.90
2023-03-28T22:06:49.373Z,72.80
2023-03-28T22:09:17.197Z,72.70
2023-03-28T22:11:45.828Z,74.40
2023-03-28T22:14:13.817Z,76.00
2023-03-28T22:16:41.631Z,76.60
2023-03-28T22:19:11.302Z,77.70
2023-03-28T22:21:39.227Z,77.80
2023-03-28T22:24:12.879Z,75.60
2023-03-28T22:26:41.511Z,74.20
2023-03-28T22:29:10.516Z,73.20
2023-03-28T22:31:38.601Z,74.40
2023-03-28T22:34:07.090Z,76.30
2023-03-28T22:36:36.404Z,78.60
2023-03-28T22:39:04.289Z,78.80
2023-03-28T22:41:32.432Z,79.30
2023-03-28T22:44:00.522Z,78.50
2023-03-28T22:46:28.403Z,76.50
2023-03-28T22:48:58.343Z,77.10
2023-03-28T22:51:28.188Z,79.40
2023-03-28T22:54:01.656Z,75.10
2023-03-28T22:56:29.765Z,71.80
2023-03-28T22:59:00.934Z,73.50
2023-03-28T23:01:29.029Z,73.40
2023-03-28T23:03:57.146Z,72.80
2023-03-28T23:06:25.079Z,73.80
2023-03-28T23:08:53.465Z,75.60
2023-03-28T23:11:22.684Z,73.00
2023-03-28T23:13:50.486Z,74.60
2023-03-28T23:16:18.413Z,74.20
2023-03-28T23:18:46.286Z,71.90
2023-03-28T23:21:14.542Z,69.80
2023-03-28T23:23:43.063Z,73.20
2023-03-28T23:26:11.096Z,75.10
2023-03-28T23:28:40.381Z,74.80
2023-03-28T23:31:10.249Z,74.60
2023-03-28T23:33:38.117Z,75.30
2023-03-28T23:36:07.644Z,73.50
2023-03-28T23:38:35.619Z,70.90
2023-03-28T23:41:03.768Z,73.30
2023-03-28T23:43:31.808Z,72.00
2023-03-28T23:46:04.052Z,73.80
2023-03-28T23:48:32.120Z,72.80
2023-03-28T23:51:01.785Z,70.50
2023-03-28T23:53:29.964Z,69.90
2023-03-28T23:55:57.809Z,70.20
2023-03-28T23:58:25.855Z,69.10
